CFG94K LDDU-EDDK
Flight info
| Callsign | CFG94K |
|---|---|
| Flight time | N/A |
| Altitude | 34000 |
| Route | AMUGO DCT UVODI DCT PEVAL DCT BABAG DCT MOBDO DCT SOTOV P66 KPT L608 KOVAN T844 ASKIK T840 GULKO |
| Aircraft | A321/M-SDE3FGHIRWY/LB1 |
Departure
| Time | 2025-10-28 07:17 |
|---|---|
| Airport | Dubrovnik Ruđer Bošković Airport (LDDU) |
Arrival
| Time | N/A |
|---|---|
| Airport | Cologne Bonn Airport (EDDK) |
| Time | Latitude | Longitude | Altitude | Speed | Heading |
|---|---|---|---|---|---|
| 2025-10-28 06:44 | 42.56128 | 18.26201 | 534 ft | 0 kts | 208° |
| 2025-10-28 07:08 | 42.56158 | 18.26223 | 534 ft | 3 kts | 208° |
| 2025-10-28 07:09 | 42.56188 | 18.26221 | 534 ft | 2 kts | 122° |
| 2025-10-28 07:09 | 42.56201 | 18.26189 | 534 ft | 1 kts | 118° |
| 2025-10-28 07:10 | 42.56202 | 18.26188 | 534 ft | 0 kts | 118° |
| 2025-10-28 07:11 | 42.56200 | 18.26191 | 534 ft | 2 kts | 118° |
| 2025-10-28 07:12 | 42.56137 | 18.26350 | 534 ft | 17 kts | 118° |
| 2025-10-28 07:12 | 42.56068 | 18.26520 | 534 ft | 24 kts | 118° |
| 2025-10-28 07:13 | 42.55832 | 18.27124 | 534 ft | 28 kts | 118° |
| 2025-10-28 07:13 | 42.55655 | 18.27569 | 534 ft | 25 kts | 118° |
| 2025-10-28 07:14 | 42.55495 | 18.27966 | 534 ft | 22 kts | 118° |
| 2025-10-28 07:14 | 42.55544 | 18.28173 | 533 ft | 11 kts | 23° |
| 2025-10-28 07:14 | 42.55608 | 18.28168 | 533 ft | 9 kts | 316° |
| 2025-10-28 07:15 | 42.55820 | 18.27633 | 531 ft | 88 kts | 298° |
| 2025-10-28 07:16 | 42.56722 | 18.25310 | 724 ft | 168 kts | 300° |
| 2025-10-28 07:16 | 42.57768 | 18.22621 | 1966 ft | 166 kts | 300° |
| 2025-10-28 07:17 | 42.59007 | 18.19552 | 2257 ft | 206 kts | 300° |
| 2025-10-28 07:17 | 42.60550 | 18.15780 | 2619 ft | 251 kts | 300° |
| 2025-10-28 07:18 | 42.62246 | 18.11503 | 4031 ft | 258 kts | 300° |
| 2025-10-28 07:18 | 42.63940 | 18.07178 | 5550 ft | 261 kts | 300° |
| 2025-10-28 07:18 | 42.64791 | 18.04987 | 6277 ft | 264 kts | 300° |
| 2025-10-28 07:19 | 42.68256 | 17.96130 | 9179 ft | 265 kts | 300° |
| 2025-10-28 07:20 | 42.69126 | 17.93915 | 9914 ft | 266 kts | 300° |
| 2025-10-28 07:20 | 42.70127 | 17.89105 | 11178 ft | 274 kts | 269° |
| 2025-10-28 07:21 | 42.68520 | 17.84046 | 11626 ft | 322 kts | 238° |
| 2025-10-28 07:21 | 42.65683 | 17.78889 | 11880 ft | 358 kts | 238° |
| 2025-10-28 07:22 | 42.64160 | 17.76122 | 12080 ft | 372 kts | 238° |
| 2025-10-28 07:22 | 42.61019 | 17.70427 | 13096 ft | 380 kts | 238° |
| 2025-10-28 07:23 | 42.57959 | 17.64574 | 14163 ft | 378 kts | 248° |
| 2025-10-28 07:23 | 42.57309 | 17.54417 | 15529 ft | 363 kts | 291° |
| 2025-10-28 07:24 | 42.59837 | 17.48585 | 16508 ft | 361 kts | 308° |
| 2025-10-28 07:24 | 42.62856 | 17.43124 | 17517 ft | 362 kts | 308° |
| 2025-10-28 07:25 | 42.65877 | 17.37624 | 18419 ft | 365 kts | 309° |
| 2025-10-28 07:25 | 42.68931 | 17.32063 | 19209 ft | 368 kts | 309° |
| 2025-10-28 07:26 | 42.70465 | 17.29265 | 19606 ft | 370 kts | 309° |
| 2025-10-28 07:26 | 42.75096 | 17.20800 | 20821 ft | 374 kts | 309° |
| 2025-10-28 07:27 | 42.76650 | 17.17956 | 21208 ft | 376 kts | 309° |
| 2025-10-28 07:27 | 42.81352 | 17.09329 | 22299 ft | 381 kts | 309° |
| 2025-10-28 07:28 | 42.84514 | 17.03506 | 22985 ft | 384 kts | 309° |
| 2025-10-28 07:28 | 42.87716 | 16.97623 | 23650 ft | 388 kts | 309° |
| 2025-10-28 07:29 | 42.90937 | 16.91670 | 24201 ft | 391 kts | 309° |
| 2025-10-28 07:29 | 42.94181 | 16.85664 | 24721 ft | 395 kts | 309° |
| 2025-10-28 07:31 | 43.02402 | 16.70430 | 26168 ft | 401 kts | 309° |
| 2025-10-28 07:33 | 43.18011 | 16.44410 | 29346 ft | 389 kts | 317° |
| 2025-10-28 07:35 | 43.30989 | 16.25944 | 31555 ft | 380 kts | 316° |
| 2025-10-28 07:37 | 43.45464 | 16.05213 | 33849 ft | 371 kts | 315° |
| 2025-10-28 07:39 | 43.59700 | 15.84685 | 34032 ft | 370 kts | 315° |
| 2025-10-28 07:40 | 43.73313 | 15.64912 | 34048 ft | 370 kts | 315° |
| 2025-10-28 07:43 | 43.90961 | 15.39048 | 34056 ft | 369 kts | 315° |
| 2025-10-28 07:45 | 44.03248 | 15.20915 | 34058 ft | 369 kts | 315° |
| 2025-10-28 07:47 | 44.19013 | 14.97465 | 34030 ft | 368 kts | 315° |
| 2025-10-28 07:49 | 44.31229 | 14.79160 | 34052 ft | 368 kts | 315° |
| 2025-10-28 07:51 | 44.46879 | 14.55533 | 34079 ft | 368 kts | 315° |
| 2025-10-28 07:53 | 44.59023 | 14.37062 | 34044 ft | 368 kts | 315° |
| 2025-10-28 07:55 | 44.72828 | 14.15916 | 34058 ft | 367 kts | 315° |
| 2025-10-28 07:57 | 44.86576 | 13.94689 | 34061 ft | 367 kts | 315° |
| 2025-10-28 07:59 | 45.00264 | 13.73404 | 34037 ft | 367 kts | 315° |
| 2025-10-28 08:01 | 45.13943 | 13.51960 | 34009 ft | 368 kts | 314° |
| 2025-10-28 08:03 | 45.27632 | 13.30325 | 34933 ft | 367 kts | 314° |
| 2025-10-28 08:05 | 45.41676 | 13.09017 | 35048 ft | 371 kts | 319° |
| 2025-10-28 08:07 | 45.57203 | 12.89735 | 35006 ft | 372 kts | 319° |
| 2025-10-28 08:09 | 45.72820 | 12.70198 | 35051 ft | 373 kts | 319° |
| 2025-10-28 08:11 | 45.88451 | 12.50491 | 35071 ft | 375 kts | 318° |
| 2025-10-28 08:13 | 46.02101 | 12.33126 | 35029 ft | 375 kts | 318° |
| 2025-10-28 08:15 | 46.19767 | 12.10517 | 35015 ft | 378 kts | 318° |
| 2025-10-28 08:17 | 46.33523 | 11.92755 | 35011 ft | 380 kts | 317° |
| 2025-10-28 08:19 | 46.51708 | 11.70512 | 35071 ft | 381 kts | 320° |
| 2025-10-28 08:21 | 46.66239 | 11.53822 | 35105 ft | 379 kts | 320° |
| 2025-10-28 08:23 | 46.84142 | 11.33053 | 35110 ft | 381 kts | 320° |
| 2025-10-28 08:24 | 46.98952 | 11.16893 | 35084 ft | 381 kts | 325° |
| 2025-10-28 08:27 | 47.18021 | 10.96809 | 35084 ft | 371 kts | 319° |
| 2025-10-28 08:28 | 47.32036 | 10.79984 | 35082 ft | 369 kts | 319° |
| 2025-10-28 08:31 | 47.50648 | 10.59718 | 35071 ft | 370 kts | 323° |
| 2025-10-28 08:32 | 47.65377 | 10.44547 | 35080 ft | 367 kts | 322° |
| 2025-10-28 08:35 | 47.85555 | 10.21648 | 35077 ft | 364 kts | 318° |
| 2025-10-28 08:37 | 47.99257 | 10.04844 | 35060 ft | 364 kts | 319° |
| 2025-10-28 08:39 | 48.15711 | 9.87352 | 35042 ft | 362 kts | 321° |
| 2025-10-28 08:41 | 48.32141 | 9.69705 | 35038 ft | 363 kts | 321° |
| 2025-10-28 08:43 | 48.48546 | 9.51967 | 34992 ft | 363 kts | 320° |
| 2025-10-28 08:45 | 48.64941 | 9.34108 | 34978 ft | 363 kts | 320° |
| 2025-10-28 08:47 | 48.81291 | 9.16125 | 34968 ft | 363 kts | 319° |
| 2025-10-28 08:49 | 48.99695 | 9.02674 | 34980 ft | 376 kts | 334° |
| 2025-10-28 08:51 | 49.19524 | 8.92652 | 34984 ft | 375 kts | 334° |
| 2025-10-28 08:52 | 49.36017 | 8.84251 | 34959 ft | 375 kts | 333° |